Time;durP1;ratioP1;P1;durP2;ratioP2;P2;SDS_P1;SDS_P2;PMS_P1;PMS_P2;Temp;Humidity;BMP_temperature;BMP_pressure;BME280_temperature;BME280_humidity;BME280_pressure;Samples;Min_cycle;Max_cycle;Signal;HPM_P1;HPM_P2
2021/10/03 00:01:52;;;;;;;8.00;5.77;;;15.10;99.90;;;;;;5093196;28;20403;-69
2021/10/03 00:04:18;;;;;;;6.23;5.73;;;15.10;99.90;;;;;;5093574;28;20425;-70
2021/10/03 00:06:44;;;;;;;5.83;5.33;;;15.10;99.90;;;;;;5093603;28;20423;-69
2021/10/03 00:09:10;;;;;;;5.97;5.37;;;15.10;99.90;;;;;;5093997;28;20872;-69
2021/10/03 00:11:35;;;;;;;6.93;6.03;;;15.20;99.90;;;;;;5093441;28;20487;-69
2021/10/03 00:14:01;;;;;;;7.70;5.63;;;15.10;99.90;;;;;;5093487;28;20170;-69
2021/10/03 00:16:27;;;;;;;8.47;5.90;;;15.10;99.90;;;;;;5093613;28;20194;-69
2021/10/03 00:18:53;;;;;;;5.80;5.20;;;15.10;99.90;;;;;;5093579;28;20177;-69
2021/10/03 00:21:19;;;;;;;9.30;5.77;;;15.10;99.90;;;;;;5093227;28;20901;-70
2021/10/03 00:23:44;;;;;;;6.80;5.27;;;15.10;99.90;;;;;;5093215;28;20283;-69
2021/10/03 00:26:10;;;;;;;8.77;6.00;;;15.20;99.90;;;;;;5093214;28;20254;-69
2021/10/03 00:28:35;;;;;;;7.47;5.43;;;15.20;99.90;;;;;;5093512;28;20172;-70
2021/10/03 00:31:01;;;;;;;6.67;5.13;;;15.20;99.90;;;;;;5093398;28;20262;-69
2021/10/03 00:33:27;;;;;;;7.70;5.13;;;15.20;99.90;;;;;;5093345;28;20262;-69
2021/10/03 00:35:52;;;;;;;7.30;5.70;;;15.10;99.90;;;;;;5092894;28;20613;-69
2021/10/03 00:38:18;;;;;;;7.30;6.27;;;15.10;99.90;;;;;;5093351;28;20644;-69
2021/10/03 00:40:44;;;;;;;8.33;5.53;;;15.10;99.90;;;;;;5093128;28;20170;-69
2021/10/03 00:43:11;;;;;;;8.63;5.37;;;15.10;99.90;;;;;;5093111;28;20653;-70
2021/10/03 00:45:38;;;;;;;7.10;5.20;;;15.10;99.90;;;;;;5092896;28;20525;-69
2021/10/03 00:48:04;;;;;;;5.80;4.70;;;15.10;99.90;;;;;;5092905;28;20400;-68
2021/10/03 00:50:31;;;;;;;7.47;5.77;;;15.10;99.90;;;;;;5092378;28;20465;-70
2021/10/03 00:52:57;;;;;;;7.40;5.87;;;15.10;99.90;;;;;;5092670;28;20457;-71
2021/10/03 00:55:22;;;;;;;8.93;5.23;;;15.10;99.90;;;;;;5092359;28;20416;-71
2021/10/03 00:57:51;;;;;;;7.30;5.50;;;15.10;99.90;;;;;;5092539;28;20170;-70
2021/10/03 01:00:20;;;;;;;7.10;6.50;;;15.10;99.90;;;;;;5092499;28;20643;-70
2021/10/03 01:02:47;;;;;;;8.77;5.13;;;15.10;99.90;;;;;;5092338;28;20411;-70
2021/10/03 01:05:13;;;;;;;6.97;6.20;;;15.10;99.90;;;;;;5092334;28;20944;-70
2021/10/03 01:07:38;;;;;;;6.90;5.57;;;15.10;99.90;;;;;;5092479;28;20917;-70
2021/10/03 01:10:06;;;;;;;9.03;6.10;;;15.10;99.90;;;;;;5092490;28;20411;-70
2021/10/03 01:12:33;;;;;;;7.50;5.90;;;15.10;99.90;;;;;;5092039;28;20681;-71
2021/10/03 01:15:00;;;;;;;7.00;5.33;;;15.00;99.90;;;;;;5092538;28;20408;-71
2021/10/03 01:17:26;;;;;;;6.57;5.07;;;15.00;99.90;;;;;;5082775;28;20794;-71
2021/10/03 01:19:52;;;;;;;6.53;4.60;;;15.00;99.90;;;;;;5086816;28;20419;-71
2021/10/03 01:22:18;;;;;;;7.40;5.30;;;15.00;99.90;;;;;;5080366;28;20181;-70
2021/10/03 01:24:43;;;;;;;7.03;5.97;;;15.00;99.90;;;;;;5091299;28;20415;-70
2021/10/03 01:27:09;;;;;;;5.73;4.50;;;15.00;99.90;;;;;;5091974;28;20186;-70
2021/10/03 01:29:35;;;;;;;7.20;5.60;;;15.00;99.90;;;;;;5092123;28;20180;-70
2021/10/03 01:32:00;;;;;;;5.73;4.60;;;14.90;99.90;;;;;;5084704;28;20230;-70
2021/10/03 01:34:26;;;;;;;6.40;4.47;;;14.90;99.90;;;;;;5071481;28;20206;-70
2021/10/03 01:36:51;;;;;;;7.40;5.83;;;14.90;99.90;;;;;;5089867;28;20201;-70
2021/10/03 01:39:17;;;;;;;7.30;5.30;;;14.90;99.90;;;;;;5091816;28;20589;-70
2021/10/03 01:41:43;;;;;;;6.17;5.43;;;14.90;99.90;;;;;;5091833;28;20173;-70
2021/10/03 01:44:08;;;;;;;6.37;5.60;;;14.90;99.90;;;;;;5091199;28;20269;-68
2021/10/03 01:46:34;;;;;;;6.90;5.80;;;14.90;99.90;;;;;;5091915;28;20519;-69
2021/10/03 01:48:59;;;;;;;5.30;4.50;;;14.90;99.90;;;;;;5083054;28;20234;-70
2021/10/03 01:51:25;;;;;;;6.27;5.67;;;14.90;99.90;;;;;;5071109;28;20209;-68
2021/10/03 01:53:58;;;;;;;5.37;4.87;;;14.90;99.90;;;;;;5071282;28;20177;-68
2021/10/03 01:56:25;;;;;;;4.60;4.20;;;14.90;99.90;;;;;;5071532;28;20193;-70
2021/10/03 01:58:58;;;;;;;5.10;4.60;;;14.90;99.90;;;;;;5071354;28;20397;-68
2021/10/03 02:01:36;;;;;;;6.20;5.17;;;14.90;99.90;;;;;;5071429;28;20415;-67
2021/10/03 02:04:06;;;;;;;6.23;5.17;;;14.90;99.90;;;;;;5071918;28;20430;-68
2021/10/03 02:06:31;;;;;;;6.90;5.20;;;14.80;99.90;;;;;;5071460;28;20832;-68
2021/10/03 02:08:58;;;;;;;5.83;5.30;;;14.80;99.90;;;;;;5071292;28;20413;-68
2021/10/03 02:11:27;;;;;;;6.87;4.53;;;14.80;99.90;;;;;;5071403;28;20194;-69
2021/10/03 02:13:53;;;;;;;5.83;4.43;;;14.80;99.90;;;;;;5071377;28;20517;-68
2021/10/03 02:16:18;;;;;;;6.03;5.20;;;14.80;99.90;;;;;;5071568;28;20809;-67
2021/10/03 02:18:47;;;;;;;7.00;5.60;;;14.80;99.90;;;;;;5071081;28;20489;-70
2021/10/03 02:21:14;;;;;;;5.97;5.20;;;14.80;99.90;;;;;;5071237;28;20175;-68
2021/10/03 02:23:40;;;;;;;5.90;4.80;;;14.80;99.90;;;;;;5071033;28;20459;-68
2021/10/03 02:26:06;;;;;;;5.37;4.90;;;14.70;99.90;;;;;;5071333;28;20565;-68
2021/10/03 02:28:33;;;;;;;5.90;4.90;;;14.70;99.90;;;;;;5072399;28;20434;-68
2021/10/03 02:31:01;;;;;;;7.40;4.93;;;14.70;99.90;;;;;;5075378;28;20459;-68
2021/10/03 02:33:27;;;;;;;5.10;4.20;;;14.60;99.90;;;;;;5075239;28;20778;-68
2021/10/03 02:35:54;;;;;;;7.27;5.20;;;14.70;99.90;;;;;;5075267;28;20420;-69
2021/10/03 02:38:22;;;;;;;7.00;4.80;;;14.70;99.90;;;;;;5074967;28;20253;-67
2021/10/03 02:40:50;;;;;;;5.40;4.90;;;14.70;99.90;;;;;;5074983;28;20408;-68
2021/10/03 02:43:16;;;;;;;6.33;5.03;;;14.70;99.90;;;;;;5075422;28;20408;-70
2021/10/03 02:45:46;;;;;;;5.07;4.60;;;14.70;99.90;;;;;;5074992;28;20421;-70
2021/10/03 02:48:12;;;;;;;5.67;4.57;;;14.70;99.90;;;;;;5075143;28;20173;-70
2021/10/03 02:50:38;;;;;;;5.50;4.70;;;14.70;99.90;;;;;;5074821;28;20454;-70
2021/10/03 02:53:09;;;;;;;4.90;4.30;;;14.70;99.90;;;;;;5074912;28;20886;-70
2021/10/03 02:55:35;;;;;;;5.63;4.27;;;14.70;99.90;;;;;;5075013;28;20190;-70
2021/10/03 02:58:01;;;;;;;5.63;4.97;;;14.70;99.90;;;;;;5073524;28;20408;-70
2021/10/03 03:00:26;;;;;;;5.00;4.50;;;14.70;99.90;;;;;;5074898;28;20817;-70
2021/10/03 03:02:51;;;;;;;6.57;5.30;;;14.70;99.90;;;;;;5074890;28;20237;-70
2021/10/03 03:05:17;;;;;;;5.53;4.60;;;14.70;99.90;;;;;;5074542;28;20183;-70
2021/10/03 03:07:42;;;;;;;5.80;4.67;;;14.70;99.90;;;;;;5074737;28;20625;-70
2021/10/03 03:10:09;;;;;;;7.03;5.63;;;14.70;99.90;;;;;;5075400;28;20232;-70
2021/10/03 03:12:36;;;;;;;7.23;5.20;;;14.60;99.90;;;;;;5074767;28;20198;-70
2021/10/03 03:15:07;;;;;;;5.07;3.87;;;14.60;99.90;;;;;;5074881;28;20495;-70
2021/10/03 03:17:32;;;;;;;5.43;4.90;;;14.60;99.90;;;;;;5075148;28;20435;-70
2021/10/03 03:19:57;;;;;;;7.83;3.33;;;14.50;99.90;;;;;;5074442;28;20756;-70
2021/10/03 03:22:23;;;;;;;4.60;3.67;;;14.50;99.90;;;;;;5074795;28;20309;-70
2021/10/03 03:24:48;;;;;;;4.10;3.70;;;14.60;99.90;;;;;;5073268;28;20175;-70
2021/10/03 03:27:14;;;;;;;5.33;4.67;;;14.60;99.90;;;;;;5074504;28;20240;-70
2021/10/03 03:29:40;;;;;;;4.43;4.00;;;14.60;99.90;;;;;;5075283;28;20166;-70
2021/10/03 03:32:06;;;;;;;4.77;4.10;;;14.60;99.90;;;;;;5075507;28;20553;-70
2021/10/03 03:34:32;;;;;;;5.70;4.03;;;14.60;99.90;;;;;;5075390;28;20401;-70
2021/10/03 03:36:57;;;;;;;5.30;4.37;;;14.60;99.90;;;;;;5075405;28;20181;-69
2021/10/03 03:39:23;;;;;;;4.93;4.20;;;14.60;99.90;;;;;;5074203;28;20170;-68
2021/10/03 03:41:49;;;;;;;4.87;3.93;;;14.70;99.90;;;;;;5074839;28;20188;-69
2021/10/03 03:44:15;;;;;;;5.17;4.67;;;14.70;99.90;;;;;;5075036;28;20181;-69
2021/10/03 03:46:40;;;;;;;4.80;4.23;;;14.70;99.90;;;;;;5075516;28;20191;-69
2021/10/03 03:49:05;;;;;;;5.87;4.70;;;14.70;99.90;;;;;;5076255;28;20419;-69
2021/10/03 03:51:31;;;;;;;5.63;4.13;;;14.70;99.90;;;;;;5075830;28;20198;-69
2021/10/03 03:53:57;;;;;;;3.97;3.50;;;14.70;99.90;;;;;;5076193;28;20579;-69
2021/10/03 03:56:22;;;;;;;5.20;4.70;;;14.70;99.90;;;;;;5074245;28;20247;-68
2021/10/03 03:58:48;;;;;;;5.40;4.20;;;14.70;99.90;;;;;;5073715;28;20162;-69
2021/10/03 04:01:13;;;;;;;6.47;4.17;;;14.70;99.90;;;;;;5073823;28;20182;-69
2021/10/03 04:03:39;;;;;;;4.63;4.10;;;14.70;99.90;;;;;;5073652;28;20646;-69
2021/10/03 04:06:04;;;;;;;6.70;4.97;;;14.70;99.90;;;;;;5073675;28;20577;-68
2021/10/03 04:08:30;;;;;;;6.07;5.50;;;14.70;99.90;;;;;;5074046;28;20312;-69
2021/10/03 04:10:56;;;;;;;4.77;3.90;;;14.70;99.90;;;;;;5073473;28;20570;-69
2021/10/03 04:13:22;;;;;;;5.30;4.80;;;14.70;99.90;;;;;;5073660;28;20416;-69
2021/10/03 04:15:48;;;;;;;4.77;4.27;;;14.70;99.90;;;;;;5073486;28;20241;-69
2021/10/03 04:18:13;;;;;;;4.30;3.90;;;14.70;99.90;;;;;;5073392;28;20457;-68
2021/10/03 04:20:40;;;;;;;6.00;5.20;;;14.70;99.90;;;;;;5073883;28;20179;-69
2021/10/03 04:23:05;;;;;;;5.60;3.80;;;14.70;99.90;;;;;;5073570;28;20163;-69
2021/10/03 04:25:31;;;;;;;4.20;3.80;;;14.60;99.90;;;;;;5073394;28;20430;-68
2021/10/03 04:27:56;;;;;;;7.10;5.70;;;14.60;99.90;;;;;;5073497;28;20178;-68
2021/10/03 04:30:22;;;;;;;5.73;4.77;;;14.60;99.90;;;;;;5073393;28;20170;-69
2021/10/03 04:32:47;;;;;;;6.57;5.10;;;14.60;99.90;;;;;;5072940;28;20206;-68
2021/10/03 04:35:13;;;;;;;7.53;4.47;;;14.50;99.90;;;;;;5073238;28;20195;-69
2021/10/03 04:37:38;;;;;;;4.37;3.27;;;14.50;99.90;;;;;;5073103;28;20193;-69
2021/10/03 04:40:05;;;;;;;5.03;4.27;;;14.50;99.90;;;;;;5072934;28;20170;-68
2021/10/03 04:42:31;;;;;;;5.33;4.30;;;14.50;99.90;;;;;;5072988;28;20515;-69
2021/10/03 04:44:57;;;;;;;4.63;4.23;;;14.50;99.90;;;;;;5072600;28;20411;-69
2021/10/03 04:47:22;;;;;;;4.40;4.00;;;14.50;99.90;;;;;;5072757;28;20323;-69
2021/10/03 04:49:49;;;;;;;5.67;4.17;;;14.50;99.90;;;;;;5072631;28;20629;-69
2021/10/03 04:52:15;;;;;;;6.70;4.83;;;14.50;99.90;;;;;;5071499;28;20189;-69
2021/10/03 04:54:41;;;;;;;5.70;4.50;;;14.50;99.90;;;;;;5072376;28;20397;-69
2021/10/03 04:57:06;;;;;;;5.80;4.10;;;14.50;99.90;;;;;;5072283;28;20443;-68
2021/10/03 04:59:32;;;;;;;7.93;5.17;;;14.50;99.90;;;;;;5072418;28;20171;-69
2021/10/03 05:01:58;;;;;;;7.20;5.10;;;14.50;99.90;;;;;;5072236;28;20178;-69
2021/10/03 05:04:24;;;;;;;6.13;4.60;;;14.50;99.90;;;;;;5072252;28;20580;-69
2021/10/03 05:06:49;;;;;;;6.40;4.50;;;14.50;99.90;;;;;;5072258;28;20431;-69
2021/10/03 05:09:15;;;;;;;4.33;3.87;;;14.50;99.90;;;;;;5072320;28;20169;-69
2021/10/03 05:11:40;;;;;;;5.33;4.83;;;14.50;99.90;;;;;;5072210;28;20202;-69
2021/10/03 05:14:07;;;;;;;5.47;5.00;;;14.50;99.90;;;;;;5072082;28;20167;-69
2021/10/03 05:16:35;;;;;;;4.90;4.40;;;14.60;99.90;;;;;;5071810;28;20641;-69
2021/10/03 05:19:01;;;;;;;6.40;4.87;;;14.50;99.90;;;;;;5072204;28;20412;-69
2021/10/03 05:21:27;;;;;;;6.03;5.50;;;14.60;99.90;;;;;;5072045;28;20738;-68
2021/10/03 05:23:52;;;;;;;6.27;4.77;;;14.60;99.90;;;;;;5072105;28;20405;-69
2021/10/03 05:26:18;;;;;;;5.70;4.83;;;14.60;99.90;;;;;;5071927;28;20201;-69
2021/10/03 05:28:43;;;;;;;4.87;4.37;;;14.60;99.90;;;;;;5071773;28;20170;-69
2021/10/03 05:31:09;;;;;;;6.07;4.47;;;14.60;99.90;;;;;;5071562;28;20561;-69
2021/10/03 05:33:35;;;;;;;6.13;5.00;;;14.60;99.90;;;;;;5071782;28;20300;-69
2021/10/03 05:36:01;;;;;;;6.27;4.67;;;14.70;99.90;;;;;;5071933;28;20198;-69
2021/10/03 05:38:27;;;;;;;6.20;5.07;;;14.60;99.90;;;;;;5071900;28;20495;-69
2021/10/03 05:40:52;;;;;;;5.17;4.60;;;14.70;99.90;;;;;;5071656;28;20495;-69
2021/10/03 05:43:18;;;;;;;5.97;4.57;;;14.60;99.90;;;;;;5071686;28;20174;-69
2021/10/03 05:45:44;;;;;;;6.50;4.60;;;14.60;99.90;;;;;;5071455;28;20190;-69
2021/10/03 05:48:09;;;;;;;7.27;6.13;;;14.70;99.90;;;;;;5071819;28;20171;-69
2021/10/03 05:50:35;;;;;;;5.90;4.40;;;14.70;99.90;;;;;;5071589;28;20188;-70
2021/10/03 05:53:00;;;;;;;7.23;4.77;;;14.70;99.90;;;;;;5071664;28;20188;-70
2021/10/03 05:55:25;;;;;;;4.63;4.20;;;14.70;99.90;;;;;;5071361;28;20175;-70
2021/10/03 05:57:51;;;;;;;6.20;4.53;;;14.70;99.90;;;;;;5071594;28;20231;-70
2021/10/03 06:00:16;;;;;;;7.43;4.00;;;14.70;99.90;;;;;;5071651;28;20250;-69
2021/10/03 06:02:42;;;;;;;7.40;6.20;;;14.70;99.90;;;;;;5071254;28;20656;-69
2021/10/03 06:05:07;;;;;;;4.93;4.50;;;14.80;99.90;;;;;;5071474;28;20170;-69
2021/10/03 06:07:33;;;;;;;5.57;4.70;;;14.80;99.90;;;;;;5071625;28;20178;-69
2021/10/03 06:09:58;;;;;;;5.67;4.80;;;14.80;99.90;;;;;;5071467;28;20231;-69
2021/10/03 06:12:24;;;;;;;6.47;5.77;;;14.80;99.90;;;;;;5071578;28;20205;-68
2021/10/03 06:14:50;;;;;;;5.77;4.70;;;14.80;99.90;;;;;;5071823;28;20205;-69
2021/10/03 06:17:15;;;;;;;6.47;5.20;;;14.80;99.90;;;;;;5071366;28;20435;-69
2021/10/03 06:19:41;;;;;;;7.20;6.00;;;14.80;99.90;;;;;;5071547;28;20298;-69
2021/10/03 06:22:06;;;;;;;5.43;4.50;;;14.80;99.90;;;;;;5071496;28;20175;-68
2021/10/03 06:24:32;;;;;;;6.70;4.63;;;14.90;99.90;;;;;;5071567;28;20177;-69
2021/10/03 06:26:57;;;;;;;5.60;4.90;;;14.90;99.90;;;;;;5071541;28;20181;-68
2021/10/03 06:29:23;;;;;;;4.40;4.03;;;14.90;99.90;;;;;;5071559;28;20213;-69
2021/10/03 06:31:48;;;;;;;7.17;5.17;;;14.90;99.90;;;;;;5071416;28;20216;-69
2021/10/03 06:34:14;;;;;;;5.13;4.67;;;14.90;99.90;;;;;;5071698;28;20533;-69
2021/10/03 06:36:40;;;;;;;5.87;5.27;;;14.90;99.90;;;;;;5071788;28;20194;-68
2021/10/03 06:39:05;;;;;;;6.53;4.80;;;15.00;99.90;;;;;;5071469;28;20543;-68
2021/10/03 06:41:31;;;;;;;6.07;5.10;;;15.10;99.90;;;;;;5071381;28;20262;-69
2021/10/03 06:43:57;;;;;;;5.77;4.63;;;15.20;99.90;;;;;;5071429;28;20276;-68
2021/10/03 06:46:23;;;;;;;6.20;5.23;;;15.30;99.90;;;;;;5071230;28;20190;-68
2021/10/03 06:48:48;;;;;;;6.03;5.10;;;15.20;99.90;;;;;;5071504;28;20490;-68
2021/10/03 06:51:14;;;;;;;5.37;4.87;;;15.30;99.90;;;;;;5071243;28;20197;-68
2021/10/03 06:53:41;;;;;;;5.30;4.77;;;15.50;99.90;;;;;;5071259;28;20701;-68
2021/10/03 06:56:08;;;;;;;4.97;4.27;;;15.50;99.90;;;;;;5071346;28;20183;-68
2021/10/03 06:58:34;;;;;;;5.10;4.60;;;15.60;99.90;;;;;;5071320;28;20402;-68
2021/10/03 07:01:00;;;;;;;7.00;5.07;;;15.60;99.90;;;;;;5071190;28;20730;-69
2021/10/03 07:03:25;;;;;;;7.70;4.87;;;15.60;99.90;;;;;;5071202;28;20781;-69
2021/10/03 07:05:51;;;;;;;5.60;4.63;;;15.60;99.90;;;;;;5071402;28;20200;-69
2021/10/03 07:08:16;;;;;;;6.97;4.77;;;15.60;99.90;;;;;;5071192;28;20242;-68
2021/10/03 07:10:42;;;;;;;6.13;5.53;;;15.50;99.90;;;;;;5071202;28;20174;-68
2021/10/03 07:13:08;;;;;;;6.90;5.50;;;15.40;99.90;;;;;;5071054;28;20613;-69
2021/10/03 07:15:33;;;;;;;7.63;4.87;;;15.30;99.90;;;;;;5074075;28;20182;-69
2021/10/03 07:17:59;;;;;;;7.20;5.30;;;15.20;99.90;;;;;;5074726;28;20183;-68
2021/10/03 07:20:25;;;;;;;5.60;5.10;;;15.20;99.90;;;;;;5074705;28;20396;-70
2021/10/03 07:22:51;;;;;;;6.60;4.93;;;15.30;99.90;;;;;;5074606;28;20549;-68
2021/10/03 07:25:16;;;;;;;7.50;6.10;;;15.40;99.90;;;;;;5074786;28;20511;-69
2021/10/03 07:27:42;;;;;;;5.23;4.10;;;15.40;99.90;;;;;;5074826;28;20472;-69
2021/10/03 07:30:08;;;;;;;6.00;5.17;;;15.50;99.90;;;;;;5074823;28;20248;-69
2021/10/03 07:32:34;;;;;;;4.47;4.07;;;15.50;99.90;;;;;;5074407;28;20252;-69
2021/10/03 07:34:59;;;;;;;5.33;4.90;;;15.60;99.90;;;;;;5074391;28;20260;-70
2021/10/03 07:37:25;;;;;;;7.20;4.87;;;15.70;99.90;;;;;;5074366;28;20203;-69
2021/10/03 07:39:50;;;;;;;6.50;5.17;;;15.60;99.90;;;;;;5074690;28;20164;-69
2021/10/03 07:42:16;;;;;;;6.87;5.90;;;15.70;99.90;;;;;;5074332;28;20244;-69
2021/10/03 07:44:41;;;;;;;6.17;5.30;;;15.80;99.90;;;;;;5074393;28;20626;-69
2021/10/03 07:47:07;;;;;;;5.70;4.73;;;15.70;99.90;;;;;;5074312;28;20186;-69
2021/10/03 07:49:32;;;;;;;5.10;4.70;;;15.80;99.90;;;;;;5074421;28;20173;-69
2021/10/03 07:51:58;;;;;;;4.30;4.00;;;16.00;99.90;;;;;;5073990;28;20195;-69
2021/10/03 07:54:23;;;;;;;6.80;4.40;;;16.00;99.90;;;;;;5074020;28;20182;-69
2021/10/03 07:56:49;;;;;;;6.20;4.90;;;16.10;99.90;;;;;;5074115;28;20204;-69
2021/10/03 07:59:14;;;;;;;6.37;4.50;;;16.10;99.90;;;;;;5074090;28;20173;-69
2021/10/03 08:01:40;;;;;;;5.27;4.60;;;16.10;99.90;;;;;;5074142;28;20170;-69
2021/10/03 08:04:05;;;;;;;5.63;4.93;;;16.10;99.90;;;;;;5074096;28;20191;-69
2021/10/03 08:06:32;;;;;;;5.57;5.07;;;16.10;99.90;;;;;;5074169;28;20619;-70
2021/10/03 08:08:58;;;;;;;6.50;5.90;;;16.00;99.90;;;;;;5074368;28;20165;-69
2021/10/03 08:11:24;;;;;;;5.53;4.93;;;16.20;99.90;;;;;;5074180;28;20462;-69
2021/10/03 08:13:50;;;;;;;5.60;4.83;;;16.10;99.90;;;;;;5074104;28;20476;-70
2021/10/03 08:16:18;;;;;;;5.90;5.27;;;16.20;99.90;;;;;;5074098;28;20192;-69
2021/10/03 08:18:44;;;;;;;4.60;4.20;;;16.20;99.90;;;;;;5073833;28;20848;-69
2021/10/03 08:21:10;;;;;;;6.03;5.10;;;16.40;99.90;;;;;;5073859;28;20410;-69
2021/10/03 08:23:35;;;;;;;9.00;6.10;;;16.40;99.90;;;;;;5073846;28;20426;-70
2021/10/03 08:26:00;;;;;;;4.67;4.00;;;16.50;99.90;;;;;;5073800;28;20195;-70
2021/10/03 08:28:26;;;;;;;5.17;4.50;;;16.50;99.90;;;;;;5073833;28;20184;-70
2021/10/03 08:30:52;;;;;;;6.73;4.53;;;16.60;99.90;;;;;;5074177;28;20163;-70
2021/10/03 08:33:17;;;;;;;6.53;5.00;;;16.50;99.90;;;;;;5074449;28;20259;-69
2021/10/03 08:35:43;;;;;;;7.67;4.73;;;16.60;99.90;;;;;;5073209;28;20194;-69
2021/10/03 08:38:08;;;;;;;8.30;4.23;;;16.50;99.90;;;;;;5073633;28;20165;-69
2021/10/03 08:40:34;;;;;;;4.93;4.50;;;16.60;99.90;;;;;;5073407;28;20168;-70
2021/10/03 08:43:02;;;;;;;5.20;4.70;;;16.80;99.90;;;;;;5073352;28;20208;-69
2021/10/03 08:45:27;;;;;;;8.13;5.17;;;16.70;99.90;;;;;;5073252;28;20187;-70
2021/10/03 08:47:53;;;;;;;5.17;4.50;;;16.60;99.90;;;;;;5073207;28;20492;-69
2021/10/03 08:50:19;;;;;;;6.13;4.40;;;16.80;99.90;;;;;;5073266;28;20204;-69
2021/10/03 08:52:46;;;;;;;5.97;5.47;;;16.80;99.90;;;;;;5072953;28;20199;-69
2021/10/03 08:55:13;;;;;;;6.30;4.97;;;17.00;99.90;;;;;;5072884;28;20436;-69
2021/10/03 08:57:39;;;;;;;6.07;4.77;;;17.00;99.90;;;;;;5072823;28;20403;-69
2021/10/03 09:00:05;;;;;;;5.03;4.63;;;17.10;99.90;;;;;;5073088;28;20922;-69
2021/10/03 09:02:54;;;;;;;7.27;5.33;;;17.30;99.90;;;;;;5072812;28;20405;-69
2021/10/03 09:05:20;;;;;;;5.10;4.30;;;17.30;99.90;;;;;;5078912;28;20196;-69
2021/10/03 09:08:07;;;;;;;7.30;4.50;;;17.40;99.90;;;;;;5075343;28;20426;-71
2021/10/03 09:11:03;;;;;;;4.00;3.70;;;17.60;99.90;;;;;;5093691;28;20418;-68
2021/10/03 09:13:31;;;;;;;4.77;4.33;;;17.70;99.90;;;;;;5093123;28;20466;-70
2021/10/03 09:16:22;;;;;;;5.17;4.67;;;17.70;99.90;;;;;;5091695;28;20787;-70
2021/10/03 09:18:54;;;;;;;4.90;4.40;;;17.70;99.90;;;;;;5092648;28;20457;-70
2021/10/03 09:21:28;;;;;;;5.23;4.43;;;17.70;99.90;;;;;;5092606;28;20401;-71
2021/10/03 09:24:05;;;;;;;5.17;4.70;;;17.80;99.90;;;;;;5092556;28;20440;-70
2021/10/03 09:26:32;;;;;;;5.70;4.30;;;17.80;99.90;;;;;;5092536;28;20863;-69
2021/10/03 09:28:57;;;;;;;5.20;4.33;;;17.90;99.90;;;;;;5091205;28;20466;-69
2021/10/03 09:31:24;;;;;;;4.90;4.17;;;17.90;99.90;;;;;;5092587;28;20450;-69
2021/10/03 09:33:55;;;;;;;5.67;4.77;;;18.10;99.90;;;;;;5092333;28;20163;-69
2021/10/03 09:36:25;;;;;;;5.07;3.87;;;18.00;99.90;;;;;;5096813;28;20478;-69
2021/10/03 09:38:57;;;;;;;4.40;4.00;;;18.00;99.90;;;;;;5091032;28;21112;-69
2021/10/03 09:41:27;;;;;;;5.63;5.03;;;17.80;99.90;;;;;;5091320;28;20416;-70
2021/10/03 09:43:55;;;;;;;4.97;4.47;;;17.90;99.90;;;;;;5092456;28;20865;-70
2021/10/03 09:46:39;;;;;;;5.23;4.30;;;18.00;99.90;;;;;;5092385;28;20510;-69
2021/10/03 09:49:10;;;;;;;5.47;4.77;;;18.20;99.90;;;;;;5092642;28;20414;-70
2021/10/03 09:51:37;;;;;;;5.80;5.30;;;18.30;99.90;;;;;;5092022;28;20516;-69
2021/10/03 09:54:05;;;;;;;5.60;4.50;;;18.40;99.90;;;;;;5092129;28;20815;-69
2021/10/03 09:56:31;;;;;;;4.97;4.20;;;18.70;99.90;;;;;;5087998;28;20448;-70
2021/10/03 09:58:59;;;;;;;6.53;5.10;;;18.80;99.90;;;;;;5089848;28;20446;-69
2021/10/03 10:01:28;;;;;;;5.17;4.67;;;19.00;99.90;;;;;;5101288;28;20439;-69
2021/10/03 10:03:54;;;;;;;4.77;4.37;;;19.10;99.90;;;;;;5092192;28;20397;-71
2021/10/03 10:06:22;;;;;;;4.17;3.77;;;19.30;99.90;;;;;;5082563;28;20433;-69
2021/10/03 10:08:48;;;;;;;5.80;4.70;;;19.40;99.90;;;;;;5090743;28;20499;-69
2021/10/03 10:11:22;;;;;;;5.53;5.03;;;19.40;99.90;;;;;;5091732;28;20457;-69
2021/10/03 10:13:55;;;;;;;5.17;4.67;;;19.40;99.90;;;;;;5100923;28;20419;-70
2021/10/03 10:16:32;;;;;;;4.60;4.13;;;19.30;99.90;;;;;;5091942;28;20447;-69
2021/10/03 10:19:26;;;;;;;5.60;4.73;;;19.40;99.90;;;;;;5091959;28;20410;-70
2021/10/03 10:22:20;;;;;;;5.57;4.27;;;19.50;99.90;;;;;;5091983;28;20435;-69
2021/10/03 10:24:51;;;;;;;5.00;4.50;;;19.80;99.90;;;;;;5091807;28;20399;-68
2021/10/03 10:27:24;;;;;;;4.60;3.93;;;19.90;99.90;;;;;;5091823;28;20395;-71
2021/10/03 10:29:57;;;;;;;6.27;5.77;;;19.90;99.90;;;;;;5094605;28;20402;-70
2021/10/03 10:32:24;;;;;;;5.00;4.37;;;20.00;99.90;;;;;;5097478;28;20478;-72
2021/10/03 10:35:07;;;;;;;4.07;3.50;;;20.10;99.90;;;;;;5092151;28;20432;-72
2021/10/03 10:37:52;;;;;;;4.83;4.33;;;20.50;99.90;;;;;;5091555;28;20412;-70
2021/10/03 10:40:21;;;;;;;4.63;3.57;;;20.50;99.90;;;;;;5091740;28;21087;-69
2021/10/03 10:42:47;;;;;;;4.63;3.97;;;20.60;99.90;;;;;;5091525;28;20402;-70
2021/10/03 10:45:36;;;;;;;4.50;4.10;;;20.60;99.90;;;;;;5091407;28;20439;-70
2021/10/03 10:48:11;;;;;;;4.93;4.10;;;20.50;99.90;;;;;;5091749;28;20411;-70
2021/10/03 10:50:42;;;;;;;4.50;4.10;;;20.70;99.90;;;;;;5094742;28;20407;-70
2021/10/03 10:53:32;;;;;;;3.73;3.43;;;21.00;99.90;;;;;;5095594;28;20433;-70
2021/10/03 10:56:16;;;;;;;4.67;4.17;;;21.20;99.90;;;;;;5095582;28;20414;-70
2021/10/03 10:58:51;;;;;;;3.73;3.43;;;21.40;99.90;;;;;;5095474;28;20455;-69
2021/10/03 11:01:36;;;;;;;4.30;3.83;;;21.40;99.90;;;;;;5095378;28;20406;-70
2021/10/03 11:04:07;;;;;;;5.40;4.90;;;21.60;99.90;;;;;;5095850;28;20420;-69
2021/10/03 11:06:33;;;;;;;7.53;4.30;;;21.70;99.90;;;;;;5090273;28;20421;-70
2021/10/03 11:08:58;;;;;;;4.23;3.77;;;21.70;99.90;;;;;;5095288;28;20734;-69
2021/10/03 11:11:31;;;;;;;4.33;3.60;;;21.80;99.90;;;;;;5095153;28;20199;-70
2021/10/03 11:14:16;;;;;;;4.03;3.53;;;22.00;99.90;;;;;;5095025;28;20179;-69
2021/10/03 11:16:46;;;;;;;4.70;3.50;;;22.00;99.90;;;;;;5094866;28;20800;-69
2021/10/03 11:19:32;;;;;;;5.40;4.07;;;22.00;99.90;;;;;;5094562;28;20569;-69
2021/10/03 11:22:00;;;;;;;6.00;4.40;;;21.70;99.90;;;;;;5095062;28;20749;-69
2021/10/03 11:24:47;;;;;;;5.00;4.30;;;22.00;99.90;;;;;;5080066;28;20791;-69
2021/10/03 11:27:16;;;;;;;4.70;4.07;;;22.00;99.90;;;;;;5074620;28;20811;-70
2021/10/03 11:29:47;;;;;;;5.50;4.00;;;22.10;99.90;;;;;;5074600;28;20409;-69
2021/10/03 11:32:14;;;;;;;4.30;3.90;;;22.00;99.90;;;;;;5078655;28;20459;-69
2021/10/03 11:34:45;;;;;;;4.73;4.33;;;22.10;99.90;;;;;;5094609;28;20402;-69
2021/10/03 11:37:14;;;;;;;4.03;3.30;;;22.30;99.90;;;;;;5094777;28;20437;-70
2021/10/03 11:39:41;;;;;;;4.13;3.70;;;22.30;99.90;;;;;;5094428;28;20473;-69
2021/10/03 11:42:09;;;;;;;3.47;3.17;;;22.40;99.90;;;;;;5086252;28;20422;-70
2021/10/03 11:44:37;;;;;;;4.23;3.30;;;22.60;99.90;;;;;;5074382;28;20419;-69
2021/10/03 11:47:09;;;;;;;3.97;2.97;;;22.80;99.90;;;;;;5074592;28;20439;-70
2021/10/03 11:49:38;;;;;;;5.10;3.43;;;22.90;99.90;;;;;;5074468;28;20814;-70
2021/10/03 11:52:05;;;;;;;3.77;3.47;;;23.10;99.90;;;;;;5074159;28;20451;-70
2021/10/03 11:54:47;;;;;;;4.73;3.93;;;23.00;99.90;;;;;;5074275;28;20409;-70
2021/10/03 11:57:28;;;;;;;4.73;3.93;;;23.20;99.90;;;;;;5074222;28;20480;-70
2021/10/03 12:00:04;;;;;;;3.90;3.50;;;23.20;99.90;;;;;;5090605;28;20505;-70
2021/10/03 12:02:38;;;;;;;3.07;2.77;;;23.20;99.90;;;;;;5094447;28;20496;-70
2021/10/03 12:05:06;;;;;;;4.80;3.53;;;23.20;99.90;;;;;;5095383;28;20849;-70
2021/10/03 12:07:31;;;;;;;4.40;3.47;;;23.10;99.90;;;;;;5094318;28;20461;-70
2021/10/03 12:10:09;;;;;;;4.30;3.20;;;23.00;99.90;;;;;;5094306;28;20848;-70
2021/10/03 12:12:52;;;;;;;4.40;3.20;;;23.10;99.90;;;;;;5093966;28;20195;-70
2021/10/03 12:15:40;;;;;;;3.80;3.40;;;23.00;99.90;;;;;;5093788;28;20422;-70
2021/10/03 12:18:08;;;;;;;3.73;3.43;;;23.00;99.90;;;;;;5093601;28;20509;-70
2021/10/03 12:20:54;;;;;;;5.00;3.50;;;23.00;99.90;;;;;;5094037;28;20424;-70
2021/10/03 12:23:42;;;;;;;3.43;3.13;;;23.10;99.90;;;;;;5093851;28;20413;-69
2021/10/03 12:26:11;;;;;;;4.10;3.70;;;23.10;99.90;;;;;;5089514;28;20492;-70
2021/10/03 12:28:54;;;;;;;3.77;3.47;;;23.00;99.90;;;;;;5092943;28;20446;-69
2021/10/03 12:31:58;;;;;;;3.93;3.53;;;23.10;99.90;;;;;;5093446;28;20454;-69
2021/10/03 12:34:24;;;;;;;4.30;4.00;;;23.30;99.90;;;;;;5083847;28;20412;-70
2021/10/03 12:36:49;;;;;;;4.20;3.23;;;23.50;99.90;;;;;;5077047;28;20416;-70
2021/10/03 12:39:19;;;;;;;4.67;3.57;;;23.60;99.90;;;;;;5082716;28;20567;-69
2021/10/03 12:41:45;;;;;;;3.90;3.40;;;23.80;99.90;;;;;;5092038;28;20225;-70
2021/10/03 12:44:13;;;;;;;3.93;3.10;;;23.90;99.90;;;;;;5095986;28;20412;-70
2021/10/03 12:46:39;;;;;;;3.40;3.03;;;24.00;99.90;;;;;;5096163;28;20192;-69
2021/10/03 12:49:04;;;;;;;3.30;3.00;;;23.80;99.90;;;;;;5085032;28;20500;-70
2021/10/03 12:51:30;;;;;;;3.20;2.90;;;23.70;99.90;;;;;;5077244;28;20197;-69
2021/10/03 12:53:56;;;;;;;3.50;3.20;;;23.70;99.90;;;;;;5094636;28;20536;-69